sensor_id;sensor_type;location;lat;lon;timestamp;pressure;altitude;pressure_sealevel;temperature;humidity
63500;BME280;49654;51.142;14.924;2023-01-27T00:00:34;99533.78;;;1.93;77.55
63500;BME280;49654;51.142;14.924;2023-01-27T00:03:01;99532.06;;;2.05;77.80
63500;BME280;49654;51.142;14.924;2023-01-27T00:05:28;99528.34;;;1.98;77.69
63500;BME280;49654;51.142;14.924;2023-01-27T00:07:55;99532.56;;;2.10;77.66
63500;BME280;49654;51.142;14.924;2023-01-27T00:10:24;99520.66;;;1.98;76.79
63500;BME280;49654;51.142;14.924;2023-01-27T00:12:52;99517.19;;;2.10;76.58
63500;BME280;49654;51.142;14.924;2023-01-27T00:15:38;99530.38;;;2.17;76.39
63500;BME280;49654;51.142;14.924;2023-01-27T00:18:06;99537.03;;;2.19;76.27
63500;BME280;49654;51.142;14.924;2023-01-27T00:20:33;99532.53;;;1.99;76.48
63500;BME280;49654;51.142;14.924;2023-01-27T00:23:20;99533.47;;;2.09;77.10
63500;BME280;49654;51.142;14.924;2023-01-27T00:26:06;99523.69;;;2.03;77.04
63500;BME280;49654;51.142;14.924;2023-01-27T00:28:36;99528.00;;;2.03;77.38
63500;BME280;49654;51.142;14.924;2023-01-27T00:31:04;99527.44;;;2.10;77.34
63500;BME280;49654;51.142;14.924;2023-01-27T00:33:32;99508.75;;;1.97;77.04
63500;BME280;49654;51.142;14.924;2023-01-27T00:36:00;99532.81;;;2.18;76.91
63500;BME280;49654;51.142;14.924;2023-01-27T00:38:28;99536.31;;;2.17;77.01
63500;BME280;49654;51.142;14.924;2023-01-27T00:40:55;99530.91;;;2.09;76.65
63500;BME280;49654;51.142;14.924;2023-01-27T00:43:41;99537.53;;;2.00;77.17
63500;BME280;49654;51.142;14.924;2023-01-27T00:46:08;99530.56;;;2.03;77.68
63500;BME280;49654;51.142;14.924;2023-01-27T00:48:35;99516.00;;;2.03;77.70
63500;BME280;49654;51.142;14.924;2023-01-27T00:51:02;99534.13;;;2.24;77.29
63500;BME280;49654;51.142;14.924;2023-01-27T00:53:29;99529.09;;;2.22;77.20
63500;BME280;49654;51.142;14.924;2023-01-27T00:55:56;99535.63;;;2.26;76.99
63500;BME280;49654;51.142;14.924;2023-01-27T00:58:23;99537.53;;;2.36;76.33
63500;BME280;49654;51.142;14.924;2023-01-27T01:00:53;99550.56;;;2.33;76.32
63500;BME280;49654;51.142;14.924;2023-01-27T01:03:20;99545.31;;;2.34;76.24
63500;BME280;49654;51.142;14.924;2023-01-27T01:05:47;99544.16;;;2.38;75.89
63500;BME280;49654;51.142;14.924;2023-01-27T01:08:14;99537.16;;;2.29;75.65
63500;BME280;49654;51.142;14.924;2023-01-27T01:10:41;99540.75;;;2.26;76.05
63500;BME280;49654;51.142;14.924;2023-01-27T01:13:08;99540.63;;;2.17;76.27
63500;BME280;49654;51.142;14.924;2023-01-27T01:15:37;99561.75;;;2.32;76.51
63500;BME280;49654;51.142;14.924;2023-01-27T01:18:06;99547.63;;;2.15;76.42
63500;BME280;49654;51.142;14.924;2023-01-27T01:20:35;99561.72;;;2.20;76.49
63500;BME280;49654;51.142;14.924;2023-01-27T01:23:02;99551.47;;;2.20;75.97
63500;BME280;49654;51.142;14.924;2023-01-27T01:25:29;99548.59;;;2.01;76.07
63500;BME280;49654;51.142;14.924;2023-01-27T01:27:56;99518.97;;;1.86;77.18
63500;BME280;49654;51.142;14.924;2023-01-27T01:30:22;99547.16;;;1.97;76.90
63500;BME280;49654;51.142;14.924;2023-01-27T01:32:51;99556.06;;;2.04;76.69
63500;BME280;49654;51.142;14.924;2023-01-27T01:35:20;99553.63;;;2.14;76.67
63500;BME280;49654;51.142;14.924;2023-01-27T01:37:47;99523.03;;;1.88;77.38
63500;BME280;49654;51.142;14.924;2023-01-27T01:40:14;99557.53;;;2.19;76.50
63500;BME280;49654;51.142;14.924;2023-01-27T01:42:47;99543.03;;;2.07;76.17
63500;BME280;49654;51.142;14.924;2023-01-27T01:48:24;99554.41;;;2.27;76.17
63500;BME280;49654;51.142;14.924;2023-01-27T01:50:57;99554.47;;;2.14;76.44
63500;BME280;49654;51.142;14.924;2023-01-27T01:53:27;99562.19;;;2.25;76.22
63500;BME280;49654;51.142;14.924;2023-01-27T01:55:59;99566.16;;;2.30;75.90
63500;BME280;49654;51.142;14.924;2023-01-27T01:58:28;99554.91;;;2.08;75.97
63500;BME280;49654;51.142;14.924;2023-01-27T02:00:55;99554.25;;;2.17;76.28
63500;BME280;49654;51.142;14.924;2023-01-27T02:03:22;99560.19;;;2.18;76.31
63500;BME280;49654;51.142;14.924;2023-01-27T02:05:51;99555.38;;;2.13;76.42
63500;BME280;49654;51.142;14.924;2023-01-27T02:08:23;99544.78;;;2.07;76.50
63500;BME280;49654;51.142;14.924;2023-01-27T02:10:52;99560.50;;;2.13;76.52
63500;BME280;49654;51.142;14.924;2023-01-27T02:13:19;99557.94;;;2.13;76.60
63500;BME280;49654;51.142;14.924;2023-01-27T02:15:46;99557.34;;;2.10;76.54
63500;BME280;49654;51.142;14.924;2023-01-27T02:18:13;99557.59;;;2.07;76.91
63500;BME280;49654;51.142;14.924;2023-01-27T02:20:42;99551.81;;;2.16;76.63
63500;BME280;49654;51.142;14.924;2023-01-27T02:23:18;99550.66;;;1.96;77.10
63500;BME280;49654;51.142;14.924;2023-01-27T02:25:50;99556.25;;;2.01;76.73
63500;BME280;49654;51.142;14.924;2023-01-27T02:28:18;99550.94;;;2.04;76.71
63500;BME280;49654;51.142;14.924;2023-01-27T02:30:45;99560.75;;;1.86;76.12
63500;BME280;49654;51.142;14.924;2023-01-27T02:33:14;99562.88;;;1.68;77.41
63500;BME280;49654;51.142;14.924;2023-01-27T02:35:44;99562.50;;;1.86;77.27
63500;BME280;49654;51.142;14.924;2023-01-27T02:38:14;99474.03;;;1.34;76.88
63500;BME280;49654;51.142;14.924;2023-01-27T02:40:42;99559.16;;;1.96;77.01
63500;BME280;49654;51.142;14.924;2023-01-27T02:43:11;99557.72;;;1.81;77.07
63500;BME280;49654;51.142;14.924;2023-01-27T02:45:38;99538.84;;;1.82;77.28
63500;BME280;49654;51.142;14.924;2023-01-27T02:48:05;99567.13;;;1.81;77.03
63500;BME280;49654;51.142;14.924;2023-01-27T02:50:32;99565.06;;;1.86;77.62
63500;BME280;49654;51.142;14.924;2023-01-27T02:52:59;99573.03;;;1.94;76.90
63500;BME280;49654;51.142;14.924;2023-01-27T02:55:26;99571.69;;;1.88;76.75
63500;BME280;49654;51.142;14.924;2023-01-27T02:57:53;99574.69;;;1.82;77.54
63500;BME280;49654;51.142;14.924;2023-01-27T03:00:21;99565.06;;;1.86;76.90
63500;BME280;49654;51.142;14.924;2023-01-27T03:02:48;99566.56;;;1.88;77.08
63500;BME280;49654;51.142;14.924;2023-01-27T03:05:15;99563.66;;;1.82;76.80
63500;BME280;49654;51.142;14.924;2023-01-27T03:07:42;99565.06;;;1.86;77.35
63500;BME280;49654;51.142;14.924;2023-01-27T03:10:10;99567.56;;;1.98;76.70
63500;BME280;49654;51.142;14.924;2023-01-27T03:12:37;99467.78;;;1.38;77.10
63500;BME280;49654;51.142;14.924;2023-01-27T03:15:04;99498.13;;;1.55;76.80
63500;BME280;49654;51.142;14.924;2023-01-27T03:17:50;99534.38;;;1.49;77.43
63500;BME280;49654;51.142;14.924;2023-01-27T03:20:36;99566.09;;;1.83;77.36
63500;BME280;49654;51.142;14.924;2023-01-27T03:23:03;99569.72;;;1.92;77.49
63500;BME280;49654;51.142;14.924;2023-01-27T03:25:30;99573.22;;;1.91;76.85
63500;BME280;49654;51.142;14.924;2023-01-27T03:27:57;99547.88;;;1.75;76.83
63500;BME280;49654;51.142;14.924;2023-01-27T03:30:24;99560.75;;;1.86;77.33
63500;BME280;49654;51.142;14.924;2023-01-27T03:32:53;99565.34;;;1.94;77.01
63500;BME280;49654;51.142;14.924;2023-01-27T03:35:21;99448.06;;;1.27;76.88
63500;BME280;49654;51.142;14.924;2023-01-27T03:37:48;99560.91;;;1.96;76.99
63500;BME280;49654;51.142;14.924;2023-01-27T03:40:33;99565.06;;;1.86;76.65
63500;BME280;49654;51.142;14.924;2023-01-27T03:43:18;99551.06;;;1.79;76.87
63500;BME280;49654;51.142;14.924;2023-01-27T03:46:02;99558.47;;;1.94;77.20
63500;BME280;49654;51.142;14.924;2023-01-27T03:48:47;99554.28;;;1.93;77.34
63500;BME280;49654;51.142;14.924;2023-01-27T03:51:15;99566.28;;;1.93;76.93
63500;BME280;49654;51.142;14.924;2023-01-27T03:53:42;99561.19;;;2.04;77.06
63500;BME280;49654;51.142;14.924;2023-01-27T03:56:10;99565.38;;;2.05;76.91
63500;BME280;49654;51.142;14.924;2023-01-27T03:58:37;99555.09;;;1.94;76.56
63500;BME280;49654;51.142;14.924;2023-01-27T04:01:07;99566.22;;;2.06;76.60
63500;BME280;49654;51.142;14.924;2023-01-27T04:03:37;99566.09;;;2.07;76.63
63500;BME280;49654;51.142;14.924;2023-01-27T04:06:25;99559.72;;;1.89;77.16
63500;BME280;49654;51.142;14.924;2023-01-27T04:09:11;99558.31;;;1.85;76.53
63500;BME280;49654;51.142;14.924;2023-01-27T04:11:39;99562.22;;;1.78;77.22
63500;BME280;49654;51.142;14.924;2023-01-27T04:14:22;99570.44;;;1.70;76.85
63500;BME280;49654;51.142;14.924;2023-01-27T04:16:50;99564.22;;;1.37;77.90
63500;BME280;49654;51.142;14.924;2023-01-27T04:19:18;99544.41;;;1.52;77.60
63500;BME280;49654;51.142;14.924;2023-01-27T04:21:47;99566.13;;;1.70;77.83
63500;BME280;49654;51.142;14.924;2023-01-27T04:24:14;99561.41;;;1.77;77.51
63500;BME280;49654;51.142;14.924;2023-01-27T04:26:51;99560.47;;;1.78;77.37
63500;BME280;49654;51.142;14.924;2023-01-27T04:29:20;99565.28;;;1.83;77.09
63500;BME280;49654;51.142;14.924;2023-01-27T04:31:48;99498.22;;;1.30;77.24
63500;BME280;49654;51.142;14.924;2023-01-27T04:34:15;99564.78;;;1.78;77.16
63500;BME280;49654;51.142;14.924;2023-01-27T04:36:42;99560.97;;;1.83;77.15
63500;BME280;49654;51.142;14.924;2023-01-27T04:39:12;99565.06;;;1.86;77.06
63500;BME280;49654;51.142;14.924;2023-01-27T04:41:40;99566.13;;;1.70;77.73
63500;BME280;49654;51.142;14.924;2023-01-27T04:44:07;99543.06;;;1.59;77.27
63500;BME280;49654;51.142;14.924;2023-01-27T04:46:35;99566.63;;;1.52;77.43
63500;BME280;49654;51.142;14.924;2023-01-27T04:49:03;99556.59;;;1.48;77.11
63500;BME280;49654;51.142;14.924;2023-01-27T04:51:30;99576.63;;;1.67;77.04
63500;BME280;49654;51.142;14.924;2023-01-27T04:53:57;99546.84;;;1.54;76.76
63500;BME280;49654;51.142;14.924;2023-01-27T04:56:28;99584.22;;;1.56;76.58
63500;BME280;49654;51.142;14.924;2023-01-27T04:58:57;99587.69;;;1.55;76.55
63500;BME280;49654;51.142;14.924;2023-01-27T05:01:24;99589.44;;;1.55;76.74
63500;BME280;49654;51.142;14.924;2023-01-27T05:03:51;99589.13;;;1.59;76.90
63500;BME280;49654;51.142;14.924;2023-01-27T05:06:18;99591.97;;;1.67;77.01
63500;BME280;49654;51.142;14.924;2023-01-27T05:08:45;99530.84;;;1.26;76.44
63500;BME280;49654;51.142;14.924;2023-01-27T05:11:12;99590.19;;;1.44;76.33
63500;BME280;49654;51.142;14.924;2023-01-27T05:13:41;99600.63;;;1.41;76.91
63500;BME280;49654;51.142;14.924;2023-01-27T05:16:10;99602.00;;;1.58;76.42
63500;BME280;49654;51.142;14.924;2023-01-27T05:18:39;99542.16;;;0.98;76.66
63500;BME280;49654;51.142;14.924;2023-01-27T05:21:07;99598.78;;;1.43;76.52
63500;BME280;49654;51.142;14.924;2023-01-27T05:23:37;99603.91;;;1.43;76.83
63500;BME280;49654;51.142;14.924;2023-01-27T05:26:06;99600.72;;;1.52;76.77
63500;BME280;49654;51.142;14.924;2023-01-27T05:28:34;99596.91;;;1.58;76.58
63500;BME280;49654;51.142;14.924;2023-01-27T05:31:05;99604.91;;;1.40;76.57
63500;BME280;49654;51.142;14.924;2023-01-27T05:33:33;99607.88;;;1.47;76.76
63500;BME280;49654;51.142;14.924;2023-01-27T05:36:02;99612.09;;;1.35;76.69
63500;BME280;49654;51.142;14.924;2023-01-27T05:38:29;99612.09;;;1.35;77.02
63500;BME280;49654;51.142;14.924;2023-01-27T05:40:58;99597.25;;;1.28;77.20
63500;BME280;49654;51.142;14.924;2023-01-27T05:43:27;99601.16;;;1.33;76.81
63500;BME280;49654;51.142;14.924;2023-01-27T05:46:00;99627.22;;;1.51;76.80
63500;BME280;49654;51.142;14.924;2023-01-27T05:48:30;99604.31;;;1.37;76.79
63500;BME280;49654;51.142;14.924;2023-01-27T05:50:57;99614.78;;;1.08;77.30
63500;BME280;49654;51.142;14.924;2023-01-27T05:53:25;99621.81;;;1.43;77.61
63500;BME280;49654;51.142;14.924;2023-01-27T05:55:52;99626.03;;;1.18;78.02
63500;BME280;49654;51.142;14.924;2023-01-27T05:58:20;99614.78;;;1.08;78.28
63500;BME280;49654;51.142;14.924;2023-01-27T06:00:47;99623.34;;;1.33;78.21
63500;BME280;49654;51.142;14.924;2023-01-27T06:03:14;99627.28;;;1.13;78.94
63500;BME280;49654;51.142;14.924;2023-01-27T06:05:55;99602.63;;;0.99;78.85
63500;BME280;49654;51.142;14.924;2023-01-27T06:08:24;99461.59;;;0.03;78.50
63500;BME280;49654;51.142;14.924;2023-01-27T06:10:52;99630.75;;;1.12;79.32
63500;BME280;49654;51.142;14.924;2023-01-27T06:13:21;99624.91;;;1.10;79.14
63500;BME280;49654;51.142;14.924;2023-01-27T06:15:49;99628.59;;;1.18;79.58
63500;BME280;49654;51.142;14.924;2023-01-27T06:18:17;99631.66;;;1.36;79.40
63500;BME280;49654;51.142;14.924;2023-01-27T06:20:44;99606.38;;;1.19;78.69
63500;BME280;49654;51.142;14.924;2023-01-27T06:23:14;99629.19;;;1.47;78.27
63500;BME280;49654;51.142;14.924;2023-01-27T06:25:43;99638.41;;;1.50;78.01
63500;BME280;49654;51.142;14.924;2023-01-27T06:28:11;99646.47;;;1.57;77.76
63500;BME280;49654;51.142;14.924;2023-01-27T06:30:39;99645.94;;;1.64;77.45
63500;BME280;49654;51.142;14.924;2023-01-27T06:33:06;99648.91;;;1.58;77.36
63500;BME280;49654;51.142;14.924;2023-01-27T06:35:36;99644.63;;;1.59;76.90
63500;BME280;49654;51.142;14.924;2023-01-27T06:38:04;99651.06;;;1.64;77.15
63500;BME280;49654;51.142;14.924;2023-01-27T06:40:34;99552.91;;;1.03;76.92
63500;BME280;49654;51.142;14.924;2023-01-27T06:43:01;99653.44;;;1.55;77.18
63500;BME280;49654;51.142;14.924;2023-01-27T06:45:28;99626.53;;;1.36;76.91
63500;BME280;49654;51.142;14.924;2023-01-27T06:47:56;99652.13;;;1.36;77.10
63500;BME280;49654;51.142;14.924;2023-01-27T06:50:24;99654.34;;;1.41;77.64
63500;BME280;49654;51.142;14.924;2023-01-27T06:52:51;99598.09;;;1.03;77.42
63500;BME280;49654;51.142;14.924;2023-01-27T06:55:19;99653.47;;;1.42;77.68
63500;BME280;49654;51.142;14.924;2023-01-27T06:57:47;99652.91;;;1.49;77.21
63500;BME280;49654;51.142;14.924;2023-01-27T07:00:15;99650.16;;;1.40;77.02
63500;BME280;49654;51.142;14.924;2023-01-27T07:02:42;99657.22;;;1.36;77.20
63500;BME280;49654;51.142;14.924;2023-01-27T07:05:10;99654.91;;;1.33;77.37
63500;BME280;49654;51.142;14.924;2023-01-27T07:07:37;99667.94;;;1.54;77.36
63500;BME280;49654;51.142;14.924;2023-01-27T07:10:05;99633.06;;;1.40;77.04
63500;BME280;49654;51.142;14.924;2023-01-27T07:12:33;99672.19;;;1.55;76.37
63500;BME280;49654;51.142;14.924;2023-01-27T07:15:05;99670.63;;;1.65;76.41
63500;BME280;49654;51.142;14.924;2023-01-27T07:17:32;99649.53;;;1.62;77.02
63500;BME280;49654;51.142;14.924;2023-01-27T07:19:59;99674.47;;;1.84;76.24
63500;BME280;49654;51.142;14.924;2023-01-27T07:22:28;99672.91;;;1.94;76.15
63500;BME280;49654;51.142;14.924;2023-01-27T07:24:55;99661.78;;;1.82;75.83
63500;BME280;49654;51.142;14.924;2023-01-27T07:27:22;99688.19;;;1.83;76.17
63500;BME280;49654;51.142;14.924;2023-01-27T07:29:49;99686.13;;;1.88;76.10
63500;BME280;49654;51.142;14.924;2023-01-27T07:32:18;99682.53;;;1.90;75.70
63500;BME280;49654;51.142;14.924;2023-01-27T07:34:45;99644.41;;;1.62;75.67
63500;BME280;49654;51.142;14.924;2023-01-27T07:37:12;99685.44;;;1.86;75.60
63500;BME280;49654;51.142;14.924;2023-01-27T07:39:39;99656.69;;;1.69;75.75
63500;BME280;49654;51.142;14.924;2023-01-27T07:42:07;99688.59;;;1.89;76.08
63500;BME280;49654;51.142;14.924;2023-01-27T07:44:34;99681.41;;;1.94;75.92
63500;BME280;49654;51.142;14.924;2023-01-27T07:47:01;99689.25;;;1.67;76.05
63500;BME280;49654;51.142;14.924;2023-01-27T07:49:29;99690.16;;;1.79;76.67
63500;BME280;49654;51.142;14.924;2023-01-27T07:51:56;99658.16;;;1.48;77.07
63500;BME280;49654;51.142;14.924;2023-01-27T07:54:23;99686.75;;;1.79;76.88
63500;BME280;49654;51.142;14.924;2023-01-27T07:56:50;99687.03;;;1.63;76.85
63500;BME280;49654;51.142;14.924;2023-01-27T07:59:17;99698.56;;;1.68;77.25
63500;BME280;49654;51.142;14.924;2023-01-27T08:01:44;99693.06;;;1.49;77.50
63500;BME280;49654;51.142;14.924;2023-01-27T08:04:11;99696.84;;;1.56;77.66
63500;BME280;49654;51.142;14.924;2023-01-27T08:06:39;99694.16;;;1.70;77.38
63500;BME280;49654;51.142;14.924;2023-01-27T08:09:06;99699.09;;;1.48;77.42
63500;BME280;49654;51.142;14.924;2023-01-27T08:11:34;99698.16;;;1.62;77.44
63500;BME280;49654;51.142;14.924;2023-01-27T08:14:01;99694.16;;;1.70;77.32
63500;BME280;49654;51.142;14.924;2023-01-27T08:16:28;99636.97;;;1.46;76.94
63500;BME280;49654;51.142;14.924;2023-01-27T08:18:55;99703.69;;;1.81;76.69
63500;BME280;49654;51.142;14.924;2023-01-27T08:21:22;99695.50;;;1.76;77.05
63500;BME280;49654;51.142;14.924;2023-01-27T08:23:51;99695.34;;;1.90;76.42
63500;BME280;49654;51.142;14.924;2023-01-27T08:26:19;99685.34;;;1.74;76.20
63500;BME280;49654;51.142;14.924;2023-01-27T08:28:45;99707.97;;;2.17;81.99
63500;BME280;49654;51.142;14.924;2023-01-27T08:31:14;99683.34;;;2.51;83.25
63500;BME280;49654;51.142;14.924;2023-01-27T08:33:43;99689.81;;;2.68;82.29
63500;BME280;49654;51.142;14.924;2023-01-27T08:36:13;99703.50;;;2.56;80.39
63500;BME280;49654;51.142;14.924;2023-01-27T08:38:41;99708.22;;;2.62;79.13
63500;BME280;49654;51.142;14.924;2023-01-27T08:41:12;99681.88;;;2.36;77.31
63500;BME280;49654;51.142;14.924;2023-01-27T08:43:40;99705.91;;;2.46;76.43
63500;BME280;49654;51.142;14.924;2023-01-27T08:46:08;99700.38;;;2.29;75.64
63500;BME280;49654;51.142;14.924;2023-01-27T08:48:35;99710.81;;;2.25;75.91
63500;BME280;49654;51.142;14.924;2023-01-27T08:51:04;99711.97;;;2.21;76.03
63500;BME280;49654;51.142;14.924;2023-01-27T08:53:32;99714.72;;;1.82;76.58
63500;BME280;49654;51.142;14.924;2023-01-27T08:56:02;99714.44;;;1.73;77.39
63500;BME280;49654;51.142;14.924;2023-01-27T08:58:30;99720.06;;;1.66;77.14
63500;BME280;49654;51.142;14.924;2023-01-27T09:00:58;99724.25;;;1.67;77.75
63500;BME280;49654;51.142;14.924;2023-01-27T09:03:26;99711.88;;;1.73;77.96
63500;BME280;49654;51.142;14.924;2023-01-27T09:05:53;99723.66;;;1.76;78.22
63500;BME280;49654;51.142;14.924;2023-01-27T09:08:20;99720.75;;;1.93;77.71
63500;BME280;49654;51.142;14.924;2023-01-27T09:10:47;99728.19;;;2.09;77.52
63500;BME280;49654;51.142;14.924;2023-01-27T09:13:14;99727.28;;;2.10;77.43
63500;BME280;49654;51.142;14.924;2023-01-27T09:15:44;99736.72;;;1.97;77.82
63500;BME280;49654;51.142;14.924;2023-01-27T09:18:11;99739.00;;;1.89;77.42
63500;BME280;49654;51.142;14.924;2023-01-27T09:20:38;99638.09;;;1.42;77.54
63500;BME280;49654;51.142;14.924;2023-01-27T09:23:05;99662.19;;;2.13;75.20
63500;BME280;49654;51.142;14.924;2023-01-27T09:25:32;99737.00;;;2.42;75.13
63500;BME280;49654;51.142;14.924;2023-01-27T09:27:59;99737.94;;;2.41;75.31
63500;BME280;49654;51.142;14.924;2023-01-27T09:30:27;99737.75;;;2.31;75.91
63500;BME280;49654;51.142;14.924;2023-01-27T09:32:58;99718.59;;;2.00;76.20
63500;BME280;49654;51.142;14.924;2023-01-27T09:35:29;99747.94;;;2.20;75.77
63500;BME280;49654;51.142;14.924;2023-01-27T09:38:02;99744.25;;;2.24;76.02
63500;BME280;49654;51.142;14.924;2023-01-27T09:40:31;99747.78;;;2.10;75.39
63500;BME280;49654;51.142;14.924;2023-01-27T09:43:27;99720.84;;;1.92;75.42
63500;BME280;49654;51.142;14.924;2023-01-27T09:49:06;99740.44;;;1.93;75.42
63500;BME280;49654;51.142;14.924;2023-01-27T09:51:50;99751.38;;;1.95;76.28
63500;BME280;49654;51.142;14.924;2023-01-27T09:54:28;99750.78;;;1.79;76.56
63500;BME280;49654;51.142;14.924;2023-01-27T09:57:05;99748.53;;;1.87;76.70
63500;BME280;49654;51.142;14.924;2023-01-27T09:59:59;99741.78;;;2.22;76.31
63500;BME280;49654;51.142;14.924;2023-01-27T10:02:42;99734.66;;;2.39;75.32
63500;BME280;49654;51.142;14.924;2023-01-27T10:05:27;99743.84;;;2.54;75.26
63500;BME280;49654;51.142;14.924;2023-01-27T10:08:10;99744.16;;;2.73;74.50
63500;BME280;49654;51.142;14.924;2023-01-27T10:10:47;99692.78;;;2.51;73.83
63500;BME280;49654;51.142;14.924;2023-01-27T10:13:27;99739.75;;;2.87;73.82
63500;BME280;49654;51.142;14.924;2023-01-27T10:16:13;99738.28;;;2.95;73.60
63500;BME280;49654;51.142;14.924;2023-01-27T10:19:04;99733.72;;;2.88;72.93
63500;BME280;49654;51.142;14.924;2023-01-27T10:21:41;99701.53;;;2.84;73.72
63500;BME280;49654;51.142;14.924;2023-01-27T10:24:18;99666.19;;;2.52;73.29
63500;BME280;49654;51.142;14.924;2023-01-27T10:26:51;99731.84;;;2.79;73.10
63500;BME280;49654;51.142;14.924;2023-01-27T10:29:24;99628.50;;;2.06;73.84
63500;BME280;49654;51.142;14.924;2023-01-27T10:31:55;99737.56;;;2.58;74.40
63500;BME280;49654;51.142;14.924;2023-01-27T10:34:26;99733.75;;;2.64;74.33
63500;BME280;49654;51.142;14.924;2023-01-27T10:37:03;99727.63;;;2.78;74.42
63500;BME280;49654;51.142;14.924;2023-01-27T10:39:38;99732.97;;;2.74;74.01
63500;BME280;49654;51.142;14.924;2023-01-27T10:42:14;99723.41;;;2.76;73.87
63500;BME280;49654;51.142;14.924;2023-01-27T10:44:59;99737.16;;;2.51;74.85
63500;BME280;49654;51.142;14.924;2023-01-27T10:47:40;99716.56;;;2.53;75.40
63500;BME280;49654;51.142;14.924;2023-01-27T10:50:14;99713.78;;;2.56;74.85
63500;BME280;49654;51.142;14.924;2023-01-27T10:52:47;99738.44;;;2.46;74.87
63500;BME280;49654;51.142;14.924;2023-01-27T10:55:21;99616.78;;;1.91;74.93
63500;BME280;49654;51.142;14.924;2023-01-27T10:57:54;99742.19;;;2.77;74.55
63500;BME280;49654;51.142;14.924;2023-01-27T11:00:29;99732.06;;;2.87;74.60
63500;BME280;49654;51.142;14.924;2023-01-27T11:03:04;99735.31;;;2.78;74.28
63500;BME280;49654;51.142;14.924;2023-01-27T11:05:35;99737.19;;;2.75;74.09
63500;BME280;49654;51.142;14.924;2023-01-27T11:08:10;99735.50;;;2.63;74.82
63500;BME280;49654;51.142;14.924;2023-01-27T11:10:40;99733.88;;;2.73;74.66
63500;BME280;49654;51.142;14.924;2023-01-27T11:13:31;99729.09;;;2.69;75.39
63500;BME280;49654;51.142;14.924;2023-01-27T11:15:59;99735.56;;;2.86;74.81
63500;BME280;49654;51.142;14.924;2023-01-27T11:18:27;99738.31;;;2.71;74.46
63500;BME280;49654;51.142;14.924;2023-01-27T11:20:58;99721.03;;;2.62;74.83
63500;BME280;49654;51.142;14.924;2023-01-27T11:23:30;99737.72;;;2.68;75.53
63500;BME280;49654;51.142;14.924;2023-01-27T11:26:02;99735.56;;;2.74;75.83
63500;BME280;49654;51.142;14.924;2023-01-27T11:28:37;99732.13;;;2.74;75.25
63500;BME280;49654;51.142;14.924;2023-01-27T11:31:15;99731.66;;;2.69;75.01
63500;BME280;49654;51.142;14.924;2023-01-27T11:33:52;99646.06;;;2.23;75.20
63500;BME280;49654;51.142;14.924;2023-01-27T11:36:23;99725.16;;;2.76;75.03
63500;BME280;49654;51.142;14.924;2023-01-27T11:38:52;99725.56;;;2.83;75.74
63500;BME280;49654;51.142;14.924;2023-01-27T11:41:20;99720.19;;;2.86;74.80
63500;BME280;49654;51.142;14.924;2023-01-27T11:43:47;99725.50;;;2.71;75.35
63500;BME280;49654;51.142;14.924;2023-01-27T11:46:19;99726.38;;;2.83;75.20
63500;BME280;49654;51.142;14.924;2023-01-27T11:48:49;99696.88;;;2.30;76.34
63500;BME280;49654;51.142;14.924;2023-01-27T11:51:18;99721.13;;;2.61;75.96
63500;BME280;49654;51.142;14.924;2023-01-27T11:53:52;99718.47;;;2.38;76.48
63500;BME280;49654;51.142;14.924;2023-01-27T11:56:22;99723.97;;;2.21;76.92
63500;BME280;49654;51.142;14.924;2023-01-27T11:58:56;99718.47;;;2.38;77.68
63500;BME280;49654;51.142;14.924;2023-01-27T12:01:35;99720.28;;;2.49;77.49
63500;BME280;49654;51.142;14.924;2023-01-27T12:04:06;99616.00;;;1.78;77.92
63500;BME280;49654;51.142;14.924;2023-01-27T12:06:42;99707.81;;;2.56;77.20
63500;BME280;49654;51.142;14.924;2023-01-27T12:09:28;99701.56;;;2.60;77.46
63500;BME280;49654;51.142;14.924;2023-01-27T12:12:09;99709.25;;;2.60;76.94
63500;BME280;49654;51.142;14.924;2023-01-27T12:14:36;99710.38;;;2.56;76.81
63500;BME280;49654;51.142;14.924;2023-01-27T12:17:05;99690.81;;;2.31;77.82
63500;BME280;49654;51.142;14.924;2023-01-27T12:19:35;99661.03;;;2.17;77.56
63500;BME280;49654;51.142;14.924;2023-01-27T12:22:07;99600.16;;;1.72;77.82
63500;BME280;49654;51.142;14.924;2023-01-27T12:24:40;99716.22;;;2.34;78.47
63500;BME280;49654;51.142;14.924;2023-01-27T12:27:19;99689.28;;;2.28;78.53
63500;BME280;49654;51.142;14.924;2023-01-27T12:29:50;99666.50;;;2.12;78.21
63500;BME280;49654;51.142;14.924;2023-01-27T12:32:21;99620.47;;;1.87;78.30
63500;BME280;49654;51.142;14.924;2023-01-27T12:34:51;99682.38;;;2.41;78.13
63500;BME280;49654;51.142;14.924;2023-01-27T12:37:23;99709.09;;;2.50;77.78
63500;BME280;49654;51.142;14.924;2023-01-27T12:39:57;99706.66;;;2.48;77.73
63500;BME280;49654;51.142;14.924;2023-01-27T12:42:36;99685.72;;;2.18;78.33
63500;BME280;49654;51.142;14.924;2023-01-27T12:45:23;99705.50;;;2.29;78.77
63500;BME280;49654;51.142;14.924;2023-01-27T12:50:38;99708.59;;;2.21;78.90
63500;BME280;49654;51.142;14.924;2023-01-27T12:53:10;99704.66;;;2.52;78.90
63500;BME280;49654;51.142;14.924;2023-01-27T12:55:42;99673.91;;;2.28;78.75
63500;BME280;49654;51.142;14.924;2023-01-27T12:58:29;99698.16;;;2.11;79.37
63500;BME280;49654;51.142;14.924;2023-01-27T13:00:59;99704.13;;;2.36;79.53
63500;BME280;49654;51.142;14.924;2023-01-27T13:03:27;99669.34;;;2.20;78.76
63500;BME280;49654;51.142;14.924;2023-01-27T13:05:57;99670.81;;;2.12;78.96
63500;BME280;49654;51.142;14.924;2023-01-27T13:08:26;99665.13;;;2.19;79.12
63500;BME280;49654;51.142;14.924;2023-01-27T13:10:57;99697.25;;;2.36;78.64
63500;BME280;49654;51.142;14.924;2023-01-27T13:13:26;99583.56;;;1.65;78.82
63500;BME280;49654;51.142;14.924;2023-01-27T13:15:55;99700.72;;;2.11;79.15
63500;BME280;49654;51.142;14.924;2023-01-27T13:18:24;99681.66;;;2.15;79.50
63500;BME280;49654;51.142;14.924;2023-01-27T13:20:54;99707.94;;;2.30;79.88
63500;BME280;49654;51.142;14.924;2023-01-27T13:23:25;99691.53;;;2.33;79.45
63500;BME280;49654;51.142;14.924;2023-01-27T13:26:02;99663.06;;;2.24;79.04